sensor_id;sensor_type;location;lat;lon;timestamp;P1;durP1;ratioP1;P2;durP2;ratioP2
11568;SDS011;5840;46.894;15.542;2023-07-29T00:01:35;4.60;;;4.20;;
11568;SDS011;5840;46.894;15.542;2023-07-29T00:04:05;4.20;;;3.90;;
11568;SDS011;5840;46.894;15.542;2023-07-29T00:06:33;4.87;;;3.60;;
11568;SDS011;5840;46.894;15.542;2023-07-29T00:09:01;4.60;;;4.20;;
11568;SDS011;5840;46.894;15.542;2023-07-29T00:11:29;4.87;;;4.57;;
11568;SDS011;5840;46.894;15.542;2023-07-29T00:13:57;4.50;;;4.20;;
11568;SDS011;5840;46.894;15.542;2023-07-29T00:16:24;4.50;;;4.10;;
11568;SDS011;5840;46.894;15.542;2023-07-29T00:18:51;4.03;;;3.70;;
11568;SDS011;5840;46.894;15.542;2023-07-29T00:21:18;5.37;;;4.40;;
11568;SDS011;5840;46.894;15.542;2023-07-29T00:23:45;4.43;;;4.07;;
11568;SDS011;5840;46.894;15.542;2023-07-29T00:26:13;4.40;;;3.60;;
11568;SDS011;5840;46.894;15.542;2023-07-29T00:28:40;4.20;;;3.83;;
11568;SDS011;5840;46.894;15.542;2023-07-29T00:31:07;4.50;;;4.10;;
11568;SDS011;5840;46.894;15.542;2023-07-29T00:33:34;4.13;;;3.83;;
11568;SDS011;5840;46.894;15.542;2023-07-29T00:36:01;4.57;;;4.17;;
11568;SDS011;5840;46.894;15.542;2023-07-29T00:38:28;4.37;;;4.07;;
11568;SDS011;5840;46.894;15.542;2023-07-29T00:40:55;4.53;;;4.13;;
11568;SDS011;5840;46.894;15.542;2023-07-29T00:43:25;4.23;;;3.83;;
11568;SDS011;5840;46.894;15.542;2023-07-29T00:45:52;4.13;;;3.83;;
11568;SDS011;5840;46.894;15.542;2023-07-29T00:48:19;4.57;;;4.23;;
11568;SDS011;5840;46.894;15.542;2023-07-29T00:50:46;5.20;;;4.70;;
11568;SDS011;5840;46.894;15.542;2023-07-29T00:53:13;4.67;;;4.37;;
11568;SDS011;5840;46.894;15.542;2023-07-29T00:55:40;4.70;;;4.17;;
11568;SDS011;5840;46.894;15.542;2023-07-29T00:58:07;4.80;;;4.40;;
11568;SDS011;5840;46.894;15.542;2023-07-29T01:00:36;5.17;;;4.63;;
11568;SDS011;5840;46.894;15.542;2023-07-29T01:03:03;4.57;;;4.20;;
11568;SDS011;5840;46.894;15.542;2023-07-29T01:05:32;5.97;;;5.00;;
11568;SDS011;5840;46.894;15.542;2023-07-29T01:08:06;4.80;;;4.50;;
11568;SDS011;5840;46.894;15.542;2023-07-29T01:10:39;5.40;;;5.00;;
11568;SDS011;5840;46.894;15.542;2023-07-29T01:13:13;4.57;;;4.27;;
11568;SDS011;5840;46.894;15.542;2023-07-29T01:15:48;4.90;;;4.53;;
11568;SDS011;5840;46.894;15.542;2023-07-29T01:18:21;5.03;;;4.60;;
11568;SDS011;5840;46.894;15.542;2023-07-29T01:20:50;4.37;;;4.00;;
11568;SDS011;5840;46.894;15.542;2023-07-29T01:23:24;4.70;;;4.40;;
11568;SDS011;5840;46.894;15.542;2023-07-29T01:25:51;5.30;;;4.80;;
11568;SDS011;5840;46.894;15.542;2023-07-29T01:28:18;4.97;;;4.57;;
11568;SDS011;5840;46.894;15.542;2023-07-29T01:30:45;5.17;;;4.70;;
11568;SDS011;5840;46.894;15.542;2023-07-29T01:33:16;5.57;;;4.93;;
11568;SDS011;5840;46.894;15.542;2023-07-29T01:35:46;4.43;;;4.03;;
11568;SDS011;5840;46.894;15.542;2023-07-29T01:38:17;4.30;;;4.00;;
11568;SDS011;5840;46.894;15.542;2023-07-29T01:40:47;4.60;;;4.20;;
11568;SDS011;5840;46.894;15.542;2023-07-29T01:43:16;4.73;;;4.40;;
11568;SDS011;5840;46.894;15.542;2023-07-29T01:45:44;4.30;;;4.00;;
11568;SDS011;5840;46.894;15.542;2023-07-29T01:48:11;4.60;;;4.20;;
11568;SDS011;5840;46.894;15.542;2023-07-29T01:50:38;4.57;;;4.27;;
11568;SDS011;5840;46.894;15.542;2023-07-29T01:53:05;4.57;;;4.17;;
11568;SDS011;5840;46.894;15.542;2023-07-29T01:55:32;4.40;;;4.10;;
11568;SDS011;5840;46.894;15.542;2023-07-29T01:58:00;4.53;;;4.13;;
11568;SDS011;5840;46.894;15.542;2023-07-29T02:00:27;4.47;;;4.17;;
11568;SDS011;5840;46.894;15.542;2023-07-29T02:02:54;4.77;;;4.40;;
11568;SDS011;5840;46.894;15.542;2023-07-29T02:05:21;4.40;;;4.00;;
11568;SDS011;5840;46.894;15.542;2023-07-29T02:07:48;4.37;;;4.10;;
11568;SDS011;5840;46.894;15.542;2023-07-29T02:10:15;7.13;;;4.97;;
11568;SDS011;5840;46.894;15.542;2023-07-29T02:12:42;4.67;;;4.27;;
11568;SDS011;5840;46.894;15.542;2023-07-29T02:15:10;5.23;;;4.73;;
11568;SDS011;5840;46.894;15.542;2023-07-29T02:17:37;4.30;;;4.00;;
11568;SDS011;5840;46.894;15.542;2023-07-29T02:20:04;5.17;;;4.77;;
11568;SDS011;5840;46.894;15.542;2023-07-29T02:22:32;4.90;;;4.50;;
11568;SDS011;5840;46.894;15.542;2023-07-29T02:24:59;5.50;;;4.90;;
11568;SDS011;5840;46.894;15.542;2023-07-29T02:27:26;5.33;;;4.90;;
11568;SDS011;5840;46.894;15.542;2023-07-29T02:29:53;5.00;;;4.67;;
11568;SDS011;5840;46.894;15.542;2023-07-29T02:32:21;5.33;;;4.83;;
11568;SDS011;5840;46.894;15.542;2023-07-29T02:34:49;5.30;;;4.90;;
11568;SDS011;5840;46.894;15.542;2023-07-29T02:37:16;5.60;;;5.20;;
11568;SDS011;5840;46.894;15.542;2023-07-29T02:39:42;5.30;;;4.90;;
11568;SDS011;5840;46.894;15.542;2023-07-29T02:42:09;5.17;;;4.83;;
11568;SDS011;5840;46.894;15.542;2023-07-29T02:44:36;4.87;;;4.57;;
11568;SDS011;5840;46.894;15.542;2023-07-29T02:47:03;5.10;;;4.80;;
11568;SDS011;5840;46.894;15.542;2023-07-29T02:49:32;5.60;;;5.10;;
11568;SDS011;5840;46.894;15.542;2023-07-29T02:51:58;5.30;;;4.80;;
11568;SDS011;5840;46.894;15.542;2023-07-29T02:54:25;4.87;;;4.57;;
11568;SDS011;5840;46.894;15.542;2023-07-29T02:56:53;4.67;;;4.27;;
11568;SDS011;5840;46.894;15.542;2023-07-29T02:59:19;4.80;;;4.40;;
11568;SDS011;5840;46.894;15.542;2023-07-29T03:01:46;4.80;;;4.47;;
11568;SDS011;5840;46.894;15.542;2023-07-29T03:04:13;4.60;;;4.30;;
11568;SDS011;5840;46.894;15.542;2023-07-29T03:06:41;4.83;;;4.43;;
11568;SDS011;5840;46.894;15.542;2023-07-29T03:09:08;5.00;;;4.60;;
11568;SDS011;5840;46.894;15.542;2023-07-29T03:11:35;5.07;;;4.67;;
11568;SDS011;5840;46.894;15.542;2023-07-29T03:14:02;4.67;;;4.30;;
11568;SDS011;5840;46.894;15.542;2023-07-29T03:16:29;4.40;;;4.10;;
11568;SDS011;5840;46.894;15.542;2023-07-29T03:18:56;5.80;;;4.97;;
11568;SDS011;5840;46.894;15.542;2023-07-29T03:21:25;4.73;;;4.33;;
11568;SDS011;5840;46.894;15.542;2023-07-29T03:23:53;4.83;;;4.43;;
11568;SDS011;5840;46.894;15.542;2023-07-29T03:26:20;4.47;;;4.17;;
11568;SDS011;5840;46.894;15.542;2023-07-29T03:28:47;4.90;;;4.40;;
11568;SDS011;5840;46.894;15.542;2023-07-29T03:31:14;4.57;;;4.27;;
11568;SDS011;5840;46.894;15.542;2023-07-29T03:33:41;4.70;;;4.40;;
11568;SDS011;5840;46.894;15.542;2023-07-29T03:36:08;4.50;;;4.10;;
11568;SDS011;5840;46.894;15.542;2023-07-29T03:38:34;4.83;;;4.43;;
11568;SDS011;5840;46.894;15.542;2023-07-29T03:41:06;4.50;;;4.10;;
11568;SDS011;5840;46.894;15.542;2023-07-29T03:43:33;5.70;;;5.13;;
11568;SDS011;5840;46.894;15.542;2023-07-29T03:46:00;5.00;;;4.53;;
11568;SDS011;5840;46.894;15.542;2023-07-29T03:48:27;4.90;;;4.17;;
11568;SDS011;5840;46.894;15.542;2023-07-29T03:50:54;5.13;;;4.63;;
11568;SDS011;5840;46.894;15.542;2023-07-29T03:53:21;4.43;;;4.07;;
11568;SDS011;5840;46.894;15.542;2023-07-29T03:55:48;5.00;;;4.70;;
11568;SDS011;5840;46.894;15.542;2023-07-29T03:58:17;4.97;;;4.57;;
11568;SDS011;5840;46.894;15.542;2023-07-29T04:00:44;4.33;;;4.03;;
11568;SDS011;5840;46.894;15.542;2023-07-29T04:03:11;4.10;;;3.80;;
11568;SDS011;5840;46.894;15.542;2023-07-29T04:05:38;5.00;;;4.60;;
11568;SDS011;5840;46.894;15.542;2023-07-29T04:08:05;4.53;;;4.13;;
11568;SDS011;5840;46.894;15.542;2023-07-29T04:10:32;4.50;;;4.10;;
11568;SDS011;5840;46.894;15.542;2023-07-29T04:13:00;4.43;;;4.03;;
11568;SDS011;5840;46.894;15.542;2023-07-29T04:15:28;4.77;;;4.40;;
11568;SDS011;5840;46.894;15.542;2023-07-29T04:17:55;4.83;;;4.53;;
11568;SDS011;5840;46.894;15.542;2023-07-29T04:20:22;4.70;;;4.30;;
11568;SDS011;5840;46.894;15.542;2023-07-29T04:22:49;4.57;;;4.23;;
11568;SDS011;5840;46.894;15.542;2023-07-29T04:25:16;4.17;;;3.97;;
11568;SDS011;5840;46.894;15.542;2023-07-29T04:27:43;4.70;;;4.30;;
11568;SDS011;5840;46.894;15.542;2023-07-29T04:30:10;4.23;;;3.93;;
11568;SDS011;5840;46.894;15.542;2023-07-29T04:32:38;5.50;;;5.00;;
11568;SDS011;5840;46.894;15.542;2023-07-29T04:35:07;4.70;;;4.30;;
11568;SDS011;5840;46.894;15.542;2023-07-29T04:37:34;4.33;;;4.03;;
11568;SDS011;5840;46.894;15.542;2023-07-29T04:40:01;5.37;;;4.87;;
11568;SDS011;5840;46.894;15.542;2023-07-29T04:42:28;4.10;;;3.80;;
11568;SDS011;5840;46.894;15.542;2023-07-29T04:44:55;4.90;;;4.50;;
11568;SDS011;5840;46.894;15.542;2023-07-29T04:47:22;5.00;;;4.60;;
11568;SDS011;5840;46.894;15.542;2023-07-29T04:49:50;4.27;;;3.97;;
11568;SDS011;5840;46.894;15.542;2023-07-29T04:52:17;4.30;;;3.97;;
11568;SDS011;5840;46.894;15.542;2023-07-29T04:54:44;4.43;;;4.03;;
11568;SDS011;5840;46.894;15.542;2023-07-29T04:57:11;4.60;;;4.30;;
11568;SDS011;5840;46.894;15.542;2023-07-29T04:59:38;4.80;;;4.50;;
11568;SDS011;5840;46.894;15.542;2023-07-29T05:02:05;4.80;;;4.40;;
11568;SDS011;5840;46.894;15.542;2023-07-29T05:04:32;4.73;;;4.33;;
11568;SDS011;5840;46.894;15.542;2023-07-29T05:07:00;4.57;;;4.20;;
11568;SDS011;5840;46.894;15.542;2023-07-29T05:09:27;4.93;;;4.53;;
11568;SDS011;5840;46.894;15.542;2023-07-29T05:11:54;4.43;;;4.13;;
11568;SDS011;5840;46.894;15.542;2023-07-29T05:14:21;4.73;;;4.33;;
11568;SDS011;5840;46.894;15.542;2023-07-29T05:16:48;4.97;;;4.57;;
11568;SDS011;5840;46.894;15.542;2023-07-29T05:19:15;4.27;;;3.97;;
11568;SDS011;5840;46.894;15.542;2023-07-29T05:21:43;4.80;;;4.40;;
11568;SDS011;5840;46.894;15.542;2023-07-29T05:24:11;4.90;;;4.50;;
11568;SDS011;5840;46.894;15.542;2023-07-29T05:26:38;5.70;;;4.40;;
11568;SDS011;5840;46.894;15.542;2023-07-29T05:29:05;5.17;;;4.67;;
11568;SDS011;5840;46.894;15.542;2023-07-29T05:31:32;4.90;;;4.40;;
11568;SDS011;5840;46.894;15.542;2023-07-29T05:33:59;5.20;;;4.60;;
11568;SDS011;5840;46.894;15.542;2023-07-29T05:36:26;4.60;;;4.30;;
11568;SDS011;5840;46.894;15.542;2023-07-29T05:38:54;5.73;;;5.00;;
11568;SDS011;5840;46.894;15.542;2023-07-29T05:41:22;4.80;;;4.50;;
11568;SDS011;5840;46.894;15.542;2023-07-29T05:43:51;5.50;;;5.10;;
11568;SDS011;5840;46.894;15.542;2023-07-29T05:46:18;4.60;;;4.20;;
11568;SDS011;5840;46.894;15.542;2023-07-29T05:48:45;5.30;;;4.80;;
11568;SDS011;5840;46.894;15.542;2023-07-29T05:51:12;4.60;;;4.30;;
11568;SDS011;5840;46.894;15.542;2023-07-29T05:53:39;5.30;;;4.90;;
11568;SDS011;5840;46.894;15.542;2023-07-29T05:56:05;6.07;;;5.67;;
11568;SDS011;5840;46.894;15.542;2023-07-29T05:58:34;5.37;;;4.90;;
11568;SDS011;5840;46.894;15.542;2023-07-29T06:01:01;5.77;;;5.17;;
11568;SDS011;5840;46.894;15.542;2023-07-29T06:03:28;4.70;;;4.40;;
11568;SDS011;5840;46.894;15.542;2023-07-29T06:05:54;4.47;;;4.07;;
11568;SDS011;5840;46.894;15.542;2023-07-29T06:08:21;4.70;;;4.30;;
11568;SDS011;5840;46.894;15.542;2023-07-29T06:10:48;5.00;;;4.60;;
11568;SDS011;5840;46.894;15.542;2023-07-29T06:13:15;5.00;;;4.60;;
11568;SDS011;5840;46.894;15.542;2023-07-29T06:15:43;4.50;;;4.10;;
11568;SDS011;5840;46.894;15.542;2023-07-29T06:18:10;4.80;;;4.00;;
11568;SDS011;5840;46.894;15.542;2023-07-29T06:20:37;4.43;;;4.03;;
11568;SDS011;5840;46.894;15.542;2023-07-29T06:23:04;4.63;;;4.33;;
11568;SDS011;5840;46.894;15.542;2023-07-29T06:25:31;4.50;;;4.20;;
11568;SDS011;5840;46.894;15.542;2023-07-29T06:27:58;5.00;;;4.60;;
11568;SDS011;5840;46.894;15.542;2023-07-29T06:30:25;4.30;;;4.10;;
11568;SDS011;5840;46.894;15.542;2023-07-29T06:32:53;5.17;;;4.80;;
11568;SDS011;5840;46.894;15.542;2023-07-29T06:35:21;5.00;;;4.60;;
11568;SDS011;5840;46.894;15.542;2023-07-29T06:37:48;4.73;;;4.33;;
11568;SDS011;5840;46.894;15.542;2023-07-29T06:40:15;7.50;;;4.70;;
11568;SDS011;5840;46.894;15.542;2023-07-29T06:42:43;5.20;;;4.80;;
11568;SDS011;5840;46.894;15.542;2023-07-29T06:45:10;5.87;;;5.30;;
11568;SDS011;5840;46.894;15.542;2023-07-29T06:47:37;4.73;;;4.37;;
11568;SDS011;5840;46.894;15.542;2023-07-29T06:50:06;5.50;;;5.00;;
11568;SDS011;5840;46.894;15.542;2023-07-29T06:52:33;5.47;;;5.07;;
11568;SDS011;5840;46.894;15.542;2023-07-29T06:55:01;5.03;;;4.63;;
11568;SDS011;5840;46.894;15.542;2023-07-29T06:57:29;5.27;;;4.87;;
11568;SDS011;5840;46.894;15.542;2023-07-29T06:59:56;5.50;;;4.97;;
11568;SDS011;5840;46.894;15.542;2023-07-29T07:02:22;4.93;;;4.60;;
11568;SDS011;5840;46.894;15.542;2023-07-29T07:04:49;6.57;;;4.50;;
11568;SDS011;5840;46.894;15.542;2023-07-29T07:07:18;4.93;;;4.53;;
11568;SDS011;5840;46.894;15.542;2023-07-29T07:09:44;5.27;;;4.77;;
11568;SDS011;5840;46.894;15.542;2023-07-29T07:12:11;4.60;;;4.30;;
11568;SDS011;5840;46.894;15.542;2023-07-29T07:14:38;4.53;;;4.20;;
11568;SDS011;5840;46.894;15.542;2023-07-29T07:17:05;5.53;;;5.13;;
11568;SDS011;5840;46.894;15.542;2023-07-29T07:19:32;5.43;;;4.93;;
11568;SDS011;5840;46.894;15.542;2023-07-29T07:21:59;5.30;;;4.83;;
11568;SDS011;5840;46.894;15.542;2023-07-29T07:24:27;4.67;;;4.33;;
11568;SDS011;5840;46.894;15.542;2023-07-29T07:26:54;4.67;;;4.37;;
11568;SDS011;5840;46.894;15.542;2023-07-29T07:29:21;8.13;;;4.70;;
11568;SDS011;5840;46.894;15.542;2023-07-29T07:31:49;4.90;;;4.23;;
11568;SDS011;5840;46.894;15.542;2023-07-29T07:34:17;5.67;;;4.40;;
11568;SDS011;5840;46.894;15.542;2023-07-29T07:36:45;5.10;;;4.67;;
11568;SDS011;5840;46.894;15.542;2023-07-29T07:39:11;4.80;;;4.47;;
11568;SDS011;5840;46.894;15.542;2023-07-29T07:41:40;4.90;;;4.50;;
11568;SDS011;5840;46.894;15.542;2023-07-29T07:44:07;5.20;;;4.80;;
11568;SDS011;5840;46.894;15.542;2023-07-29T07:46:36;5.00;;;4.63;;
11568;SDS011;5840;46.894;15.542;2023-07-29T07:49:02;5.70;;;5.30;;
11568;SDS011;5840;46.894;15.542;2023-07-29T07:51:29;5.30;;;4.80;;
11568;SDS011;5840;46.894;15.542;2023-07-29T07:53:56;5.00;;;4.67;;
11568;SDS011;5840;46.894;15.542;2023-07-29T07:56:23;4.80;;;4.50;;
11568;SDS011;5840;46.894;15.542;2023-07-29T07:58:51;5.10;;;4.60;;
11568;SDS011;5840;46.894;15.542;2023-07-29T08:01:18;5.07;;;4.67;;
11568;SDS011;5840;46.894;15.542;2023-07-29T08:03:45;4.60;;;4.30;;
11568;SDS011;5840;46.894;15.542;2023-07-29T08:06:12;4.70;;;4.30;;
11568;SDS011;5840;46.894;15.542;2023-07-29T08:08:39;4.80;;;4.40;;
11568;SDS011;5840;46.894;15.542;2023-07-29T08:11:06;5.20;;;4.70;;
11568;SDS011;5840;46.894;15.542;2023-07-29T08:13:33;4.80;;;4.40;;
11568;SDS011;5840;46.894;15.542;2023-07-29T08:16:01;5.33;;;4.47;;
11568;SDS011;5840;46.894;15.542;2023-07-29T08:18:28;4.40;;;4.10;;
11568;SDS011;5840;46.894;15.542;2023-07-29T08:20:55;5.17;;;4.67;;
11568;SDS011;5840;46.894;15.542;2023-07-29T08:23:24;5.27;;;4.10;;
11568;SDS011;5840;46.894;15.542;2023-07-29T08:25:55;4.13;;;3.83;;
11568;SDS011;5840;46.894;15.542;2023-07-29T08:28:26;4.80;;;4.37;;
11568;SDS011;5840;46.894;15.542;2023-07-29T08:30:54;4.70;;;4.40;;
11568;SDS011;5840;46.894;15.542;2023-07-29T08:33:22;4.20;;;3.77;;
11568;SDS011;5840;46.894;15.542;2023-07-29T08:35:49;3.70;;;3.40;;
11568;SDS011;5840;46.894;15.542;2023-07-29T08:38:16;3.97;;;3.67;;
11568;SDS011;5840;46.894;15.542;2023-07-29T08:40:45;3.70;;;3.40;;
11568;SDS011;5840;46.894;15.542;2023-07-29T08:43:15;4.07;;;3.77;;
11568;SDS011;5840;46.894;15.542;2023-07-29T08:45:44;4.07;;;3.70;;
11568;SDS011;5840;46.894;15.542;2023-07-29T08:48:12;3.57;;;3.37;;
11568;SDS011;5840;46.894;15.542;2023-07-29T08:50:47;4.20;;;3.80;;
11568;SDS011;5840;46.894;15.542;2023-07-29T08:53:15;3.83;;;3.63;;
11568;SDS011;5840;46.894;15.542;2023-07-29T08:55:42;3.93;;;3.63;;
11568;SDS011;5840;46.894;15.542;2023-07-29T08:58:09;4.50;;;4.10;;
11568;SDS011;5840;46.894;15.542;2023-07-29T09:00:37;4.43;;;3.83;;
11568;SDS011;5840;46.894;15.542;2023-07-29T09:03:05;3.87;;;3.57;;
11568;SDS011;5840;46.894;15.542;2023-07-29T09:05:32;3.97;;;3.63;;
11568;SDS011;5840;46.894;15.542;2023-07-29T09:08:01;3.23;;;3.03;;
11568;SDS011;5840;46.894;15.542;2023-07-29T09:10:29;4.03;;;3.73;;
11568;SDS011;5840;46.894;15.542;2023-07-29T09:12:56;4.20;;;3.90;;
11568;SDS011;5840;46.894;15.542;2023-07-29T09:15:26;3.90;;;3.60;;
11568;SDS011;5840;46.894;15.542;2023-07-29T09:17:55;3.70;;;3.40;;
11568;SDS011;5840;46.894;15.542;2023-07-29T09:20:25;3.73;;;3.43;;
11568;SDS011;5840;46.894;15.542;2023-07-29T09:22:53;3.53;;;3.33;;
11568;SDS011;5840;46.894;15.542;2023-07-29T09:25:24;3.60;;;3.30;;
11568;SDS011;5840;46.894;15.542;2023-07-29T09:27:51;4.00;;;3.70;;
11568;SDS011;5840;46.894;15.542;2023-07-29T09:30:18;3.00;;;2.80;;
11568;SDS011;5840;46.894;15.542;2023-07-29T09:32:45;3.90;;;3.60;;
11568;SDS011;5840;46.894;15.542;2023-07-29T09:35:12;3.10;;;2.90;;
11568;SDS011;5840;46.894;15.542;2023-07-29T09:37:39;3.30;;;3.10;;
11568;SDS011;5840;46.894;15.542;2023-07-29T09:40:07;3.20;;;3.00;;
11568;SDS011;5840;46.894;15.542;2023-07-29T09:42:48;3.27;;;3.07;;
11568;SDS011;5840;46.894;15.542;2023-07-29T09:45:19;3.83;;;3.30;;
11568;SDS011;5840;46.894;15.542;2023-07-29T09:47:47;3.20;;;3.00;;
11568;SDS011;5840;46.894;15.542;2023-07-29T09:50:14;3.30;;;3.10;;
11568;SDS011;5840;46.894;15.542;2023-07-29T09:52:41;3.20;;;3.00;;
11568;SDS011;5840;46.894;15.542;2023-07-29T09:55:10;3.60;;;3.30;;
11568;SDS011;5840;46.894;15.542;2023-07-29T09:57:38;3.20;;;3.00;;
11568;SDS011;5840;46.894;15.542;2023-07-29T10:00:07;3.13;;;2.83;;
11568;SDS011;5840;46.894;15.542;2023-07-29T10:02:38;3.03;;;2.83;;
11568;SDS011;5840;46.894;15.542;2023-07-29T10:05:07;3.50;;;3.00;;
11568;SDS011;5840;46.894;15.542;2023-07-29T10:07:35;3.20;;;3.00;;
11568;SDS011;5840;46.894;15.542;2023-07-29T10:10:04;3.40;;;3.20;;
11568;SDS011;5840;46.894;15.542;2023-07-29T10:12:32;3.27;;;2.97;;
11568;SDS011;5840;46.894;15.542;2023-07-29T10:15:00;3.17;;;2.97;;
11568;SDS011;5840;46.894;15.542;2023-07-29T10:17:31;3.23;;;3.03;;
11568;SDS011;5840;46.894;15.542;2023-07-29T10:20:01;3.20;;;2.90;;
11568;SDS011;5840;46.894;15.542;2023-07-29T10:22:32;3.07;;;2.87;;
11568;SDS011;5840;46.894;15.542;2023-07-29T10:25:03;3.37;;;3.17;;
11568;SDS011;5840;46.894;15.542;2023-07-29T10:27:33;3.20;;;3.00;;
11568;SDS011;5840;46.894;15.542;2023-07-29T10:30:08;3.20;;;3.00;;
11568;SDS011;5840;46.894;15.542;2023-07-29T10:32:38;3.17;;;2.97;;
11568;SDS011;5840;46.894;15.542;2023-07-29T10:35:09;3.30;;;3.10;;
11568;SDS011;5840;46.894;15.542;2023-07-29T10:37:36;3.83;;;3.27;;
11568;SDS011;5840;46.894;15.542;2023-07-29T10:40:06;3.10;;;2.90;;
11568;SDS011;5840;46.894;15.542;2023-07-29T10:42:34;3.90;;;3.60;;
11568;SDS011;5840;46.894;15.542;2023-07-29T10:45:16;3.47;;;3.27;;
11568;SDS011;5840;46.894;15.542;2023-07-29T10:47:46;3.50;;;3.20;;
11568;SDS011;5840;46.894;15.542;2023-07-29T10:50:17;3.77;;;3.47;;
11568;SDS011;5840;46.894;15.542;2023-07-29T10:52:48;3.63;;;3.33;;
11568;SDS011;5840;46.894;15.542;2023-07-29T10:55:26;3.70;;;3.50;;
11568;SDS011;5840;46.894;15.542;2023-07-29T10:58:14;4.10;;;3.40;;
11568;SDS011;5840;46.894;15.542;2023-07-29T11:00:42;3.60;;;3.30;;
11568;SDS011;5840;46.894;15.542;2023-07-29T11:03:11;3.47;;;3.27;;
11568;SDS011;5840;46.894;15.542;2023-07-29T11:05:44;3.80;;;3.50;;
11568;SDS011;5840;46.894;15.542;2023-07-29T11:08:16;3.50;;;3.20;;
11568;SDS011;5840;46.894;15.542;2023-07-29T11:10:43;4.07;;;3.77;;
11568;SDS011;5840;46.894;15.542;2023-07-29T11:13:10;3.43;;;3.10;;
11568;SDS011;5840;46.894;15.542;2023-07-29T11:15:38;3.43;;;3.23;;
11568;SDS011;5840;46.894;15.542;2023-07-29T11:18:05;3.40;;;3.10;;
11568;SDS011;5840;46.894;15.542;2023-07-29T11:20:38;3.70;;;3.40;;
11568;SDS011;5840;46.894;15.542;2023-07-29T11:23:05;3.57;;;3.27;;
11568;SDS011;5840;46.894;15.542;2023-07-29T11:25:32;3.07;;;2.87;;
11568;SDS011;5840;46.894;15.542;2023-07-29T11:28:00;3.40;;;3.20;;
11568;SDS011;5840;46.894;15.542;2023-07-29T11:30:27;3.30;;;3.10;;
11568;SDS011;5840;46.894;15.542;2023-07-29T11:32:56;3.47;;;3.23;;
11568;SDS011;5840;46.894;15.542;2023-07-29T11:35:24;3.97;;;3.70;;
11568;SDS011;5840;46.894;15.542;2023-07-29T11:37:53;4.57;;;3.83;;
11568;SDS011;5840;46.894;15.542;2023-07-29T11:40:21;3.70;;;3.50;;
11568;SDS011;5840;46.894;15.542;2023-07-29T11:42:50;4.03;;;3.73;;
11568;SDS011;5840;46.894;15.542;2023-07-29T11:45:18;3.90;;;3.50;;
11568;SDS011;5840;46.894;15.542;2023-07-29T11:47:45;3.80;;;3.50;;
11568;SDS011;5840;46.894;15.542;2023-07-29T11:50:13;3.53;;;3.23;;
11568;SDS011;5840;46.894;15.542;2023-07-29T11:52:41;3.47;;;3.23;;
11568;SDS011;5840;46.894;15.542;2023-07-29T11:55:11;3.57;;;3.37;;
11568;SDS011;5840;46.894;15.542;2023-07-29T11:57:39;3.33;;;3.13;;
11568;SDS011;5840;46.894;15.542;2023-07-29T12:00:08;4.20;;;3.33;;
11568;SDS011;5840;46.894;15.542;2023-07-29T12:02:37;3.90;;;3.60;;
11568;SDS011;5840;46.894;15.542;2023-07-29T12:05:05;3.43;;;3.23;;
11568;SDS011;5840;46.894;15.542;2023-07-29T12:07:34;4.00;;;3.60;;
11568;SDS011;5840;46.894;15.542;2023-07-29T12:10:02;3.70;;;3.40;;
11568;SDS011;5840;46.894;15.542;2023-07-29T12:12:31;3.90;;;3.40;;
11568;SDS011;5840;46.894;15.542;2023-07-29T12:14:58;4.00;;;3.67;;
11568;SDS011;5840;46.894;15.542;2023-07-29T12:17:25;4.03;;;3.73;;
11568;SDS011;5840;46.894;15.542;2023-07-29T12:19:53;3.50;;;3.30;;
11568;SDS011;5840;46.894;15.542;2023-07-29T12:22:21;3.67;;;3.47;;
11568;SDS011;5840;46.894;15.542;2023-07-29T12:24:50;3.50;;;3.30;;
11568;SDS011;5840;46.894;15.542;2023-07-29T12:27:18;4.10;;;3.70;;
11568;SDS011;5840;46.894;15.542;2023-07-29T12:29:51;3.60;;;3.40;;
11568;SDS011;5840;46.894;15.542;2023-07-29T12:32:19;3.93;;;3.63;;
11568;SDS011;5840;46.894;15.542;2023-07-29T12:34:46;3.70;;;3.40;;
11568;SDS011;5840;46.894;15.542;2023-07-29T12:37:13;3.80;;;3.30;;
11568;SDS011;5840;46.894;15.542;2023-07-29T12:39:40;3.63;;;3.33;;
11568;SDS011;5840;46.894;15.542;2023-07-29T12:42:07;3.70;;;3.50;;
11568;SDS011;5840;46.894;15.542;2023-07-29T12:44:35;3.60;;;3.40;;
11568;SDS011;5840;46.894;15.542;2023-07-29T12:47:05;3.80;;;3.40;;
11568;SDS011;5840;46.894;15.542;2023-07-29T12:49:33;4.87;;;4.37;;
11568;SDS011;5840;46.894;15.542;2023-07-29T12:52:00;3.87;;;3.37;;
11568;SDS011;5840;46.894;15.542;2023-07-29T12:54:27;4.23;;;3.30;;
11568;SDS011;5840;46.894;15.542;2023-07-29T12:56:54;3.67;;;3.37;;
11568;SDS011;5840;46.894;15.542;2023-07-29T12:59:21;3.70;;;3.40;;
11568;SDS011;5840;46.894;15.542;2023-07-29T13:01:48;3.50;;;3.30;;
11568;SDS011;5840;46.894;15.542;2023-07-29T13:04:16;3.80;;;3.50;;
11568;SDS011;5840;46.894;15.542;2023-07-29T13:06:43;3.23;;;3.03;;
11568;SDS011;5840;46.894;15.542;2023-07-29T13:09:10;3.60;;;3.33;;
11568;SDS011;5840;46.894;15.542;2023-07-29T13:11:37;3.60;;;3.40;;
11568;SDS011;5840;46.894;15.542;2023-07-29T13:14:04;3.73;;;3.53;;
11568;SDS011;5840;46.894;15.542;2023-07-29T13:16:31;3.67;;;3.40;;
11568;SDS011;5840;46.894;15.542;2023-07-29T13:18:58;3.47;;;3.00;;
11568;SDS011;5840;46.894;15.542;2023-07-29T13:21:26;3.50;;;3.30;;
11568;SDS011;5840;46.894;15.542;2023-07-29T13:23:53;3.70;;;3.40;;
11568;SDS011;5840;46.894;15.542;2023-07-29T13:26:20;3.77;;;3.47;;
11568;SDS011;5840;46.894;15.542;2023-07-29T13:28:47;3.87;;;3.57;;
11568;SDS011;5840;46.894;15.542;2023-07-29T13:31:14;3.23;;;3.00;;
11568;SDS011;5840;46.894;15.542;2023-07-29T13:33:41;3.40;;;3.20;;
11568;SDS011;5840;46.894;15.542;2023-07-29T13:36:08;3.27;;;3.07;;
11568;SDS011;5840;46.894;15.542;2023-07-29T13:38:36;3.37;;;3.17;;
11568;SDS011;5840;46.894;15.542;2023-07-29T13:41:03;3.50;;;3.20;;
11568;SDS011;5840;46.894;15.542;2023-07-29T13:43:30;4.17;;;3.80;;
11568;SDS011;5840;46.894;15.542;2023-07-29T13:45:57;4.10;;;3.70;;
11568;SDS011;5840;46.894;15.542;2023-07-29T13:48:24;3.70;;;3.43;;
11568;SDS011;5840;46.894;15.542;2023-07-29T13:50:51;4.27;;;3.53;;
11568;SDS011;5840;46.894;15.542;2023-07-29T13:53:18;3.97;;;3.63;;
11568;SDS011;5840;46.894;15.542;2023-07-29T13:55:46;3.63;;;3.33;;
11568;SDS011;5840;46.894;15.542;2023-07-29T13:58:13;4.00;;;3.70;;
11568;SDS011;5840;46.894;15.542;2023-07-29T14:00:40;4.00;;;3.70;;
11568;SDS011;5840;46.894;15.542;2023-07-29T14:03:07;4.30;;;3.63;;
11568;SDS011;5840;46.894;15.542;2023-07-29T14:05:34;3.67;;;3.47;;
11568;SDS011;5840;46.894;15.542;2023-07-29T14:08:01;3.73;;;3.53;;
11568;SDS011;5840;46.894;15.542;2023-07-29T14:10:28;3.97;;;3.67;;
11568;SDS011;5840;46.894;15.542;2023-07-29T14:12:56;3.87;;;3.63;;
11568;SDS011;5840;46.894;15.542;2023-07-29T14:15:23;3.80;;;3.50;;
11568;SDS011;5840;46.894;15.542;2023-07-29T14:17:50;4.37;;;3.73;;
11568;SDS011;5840;46.894;15.542;2023-07-29T14:20:17;3.97;;;3.67;;
11568;SDS011;5840;46.894;15.542;2023-07-29T14:22:44;3.97;;;3.67;;
11568;SDS011;5840;46.894;15.542;2023-07-29T14:25:11;4.03;;;3.73;;
11568;SDS011;5840;46.894;15.542;2023-07-29T14:27:38;3.80;;;3.60;;
11568;SDS011;5840;46.894;15.542;2023-07-29T14:30:08;4.03;;;3.73;;
11568;SDS011;5840;46.894;15.542;2023-07-29T14:32:35;3.50;;;3.30;;
11568;SDS011;5840;46.894;15.542;2023-07-29T14:35:02;3.53;;;3.33;;
11568;SDS011;5840;46.894;15.542;2023-07-29T14:37:29;3.77;;;3.47;;
11568;SDS011;5840;46.894;15.542;2023-07-29T14:39:57;3.80;;;3.60;;
11568;SDS011;5840;46.894;15.542;2023-07-29T14:42:24;3.90;;;3.57;;
11568;SDS011;5840;46.894;15.542;2023-07-29T14:44:51;3.80;;;3.60;;
11568;SDS011;5840;46.894;15.542;2023-07-29T14:47:19;3.77;;;3.47;;
11568;SDS011;5840;46.894;15.542;2023-07-29T14:49:46;4.20;;;3.80;;
11568;SDS011;5840;46.894;15.542;2023-07-29T14:52:13;4.10;;;3.80;;